sensor_id;sensor_type;location;lat;lon;timestamp;P1;durP1;ratioP1;P2;durP2;ratioP2
7334;SDS011;3708;42.632;23.378;2023-05-18T00:01:11;1.90;;;1.20;;
7334;SDS011;3708;42.632;23.378;2023-05-18T00:03:39;1.37;;;1.27;;
7334;SDS011;3708;42.632;23.378;2023-05-18T00:06:06;1.93;;;1.20;;
7334;SDS011;3708;42.632;23.378;2023-05-18T00:08:34;1.57;;;1.10;;
7334;SDS011;3708;42.632;23.378;2023-05-18T00:11:01;5.60;;;1.47;;
7334;SDS011;3708;42.632;23.378;2023-05-18T00:13:29;2.87;;;1.47;;
7334;SDS011;3708;42.632;23.378;2023-05-18T00:15:56;2.73;;;1.10;;
7334;SDS011;3708;42.632;23.378;2023-05-18T00:18:25;2.27;;;1.33;;
7334;SDS011;3708;42.632;23.378;2023-05-18T00:20:52;1.70;;;1.20;;
7334;SDS011;3708;42.632;23.378;2023-05-18T00:23:24;1.87;;;1.47;;
7334;SDS011;3708;42.632;23.378;2023-05-18T00:25:56;1.63;;;1.30;;
7334;SDS011;3708;42.632;23.378;2023-05-18T00:28:24;2.53;;;1.47;;
7334;SDS011;3708;42.632;23.378;2023-05-18T00:30:51;1.93;;;1.40;;
7334;SDS011;3708;42.632;23.378;2023-05-18T00:33:19;1.33;;;1.20;;
7334;SDS011;3708;42.632;23.378;2023-05-18T00:35:47;1.83;;;1.43;;
7334;SDS011;3708;42.632;23.378;2023-05-18T00:38:14;2.77;;;1.70;;
7334;SDS011;3708;42.632;23.378;2023-05-18T00:40:41;1.20;;;1.10;;
7334;SDS011;3708;42.632;23.378;2023-05-18T00:43:08;3.67;;;1.20;;
7334;SDS011;3708;42.632;23.378;2023-05-18T00:45:35;1.30;;;1.07;;
7334;SDS011;3708;42.632;23.378;2023-05-18T00:48:02;1.87;;;1.17;;
7334;SDS011;3708;42.632;23.378;2023-05-18T00:50:30;1.63;;;1.10;;
7334;SDS011;3708;42.632;23.378;2023-05-18T00:52:58;1.10;;;1.00;;
7334;SDS011;3708;42.632;23.378;2023-05-18T00:55:25;2.83;;;1.20;;
7334;SDS011;3708;42.632;23.378;2023-05-18T00:57:53;1.17;;;0.90;;
7334;SDS011;3708;42.632;23.378;2023-05-18T01:00:20;1.73;;;1.07;;
7334;SDS011;3708;42.632;23.378;2023-05-18T01:02:48;0.90;;;0.90;;
7334;SDS011;3708;42.632;23.378;2023-05-18T01:05:16;5.27;;;1.00;;
7334;SDS011;3708;42.632;23.378;2023-05-18T01:07:44;1.27;;;1.00;;
7334;SDS011;3708;42.632;23.378;2023-05-18T01:10:14;0.93;;;0.90;;
7334;SDS011;3708;42.632;23.378;2023-05-18T01:12:43;0.90;;;0.90;;
7334;SDS011;3708;42.632;23.378;2023-05-18T01:15:14;1.10;;;1.00;;
7334;SDS011;3708;42.632;23.378;2023-05-18T01:17:46;1.13;;;1.03;;
7334;SDS011;3708;42.632;23.378;2023-05-18T01:20:33;1.30;;;1.20;;
7334;SDS011;3708;42.632;23.378;2023-05-18T01:23:11;1.20;;;1.10;;
7334;SDS011;3708;42.632;23.378;2023-05-18T01:26:06;1.30;;;1.10;;
7334;SDS011;3708;42.632;23.378;2023-05-18T01:28:40;2.10;;;1.27;;
7334;SDS011;3708;42.632;23.378;2023-05-18T01:31:10;1.03;;;0.93;;
7334;SDS011;3708;42.632;23.378;2023-05-18T01:33:37;1.20;;;1.10;;
7334;SDS011;3708;42.632;23.378;2023-05-18T01:36:04;1.10;;;1.00;;
7334;SDS011;3708;42.632;23.378;2023-05-18T01:38:32;1.53;;;1.07;;
7334;SDS011;3708;42.632;23.378;2023-05-18T01:41:02;1.27;;;1.10;;
7334;SDS011;3708;42.632;23.378;2023-05-18T01:43:37;1.30;;;1.20;;
7334;SDS011;3708;42.632;23.378;2023-05-18T01:46:15;1.70;;;1.10;;
7334;SDS011;3708;42.632;23.378;2023-05-18T01:48:47;1.83;;;1.53;;
7334;SDS011;3708;42.632;23.378;2023-05-18T01:51:19;2.30;;;1.30;;
7334;SDS011;3708;42.632;23.378;2023-05-18T01:53:49;2.43;;;1.30;;
7334;SDS011;3708;42.632;23.378;2023-05-18T01:56:22;2.37;;;1.17;;
7334;SDS011;3708;42.632;23.378;2023-05-18T01:58:51;1.73;;;1.30;;
7334;SDS011;3708;42.632;23.378;2023-05-18T02:01:19;1.50;;;1.40;;
7334;SDS011;3708;42.632;23.378;2023-05-18T02:03:48;1.80;;;1.40;;
7334;SDS011;3708;42.632;23.378;2023-05-18T02:06:16;3.33;;;1.50;;
7334;SDS011;3708;42.632;23.378;2023-05-18T02:08:47;2.13;;;1.80;;
7334;SDS011;3708;42.632;23.378;2023-05-18T02:11:14;2.13;;;1.40;;
7334;SDS011;3708;42.632;23.378;2023-05-18T02:13:41;3.27;;;1.40;;
7334;SDS011;3708;42.632;23.378;2023-05-18T02:16:09;1.67;;;1.57;;
7334;SDS011;3708;42.632;23.378;2023-05-18T02:18:37;3.17;;;1.60;;
7334;SDS011;3708;42.632;23.378;2023-05-18T02:21:04;1.67;;;1.57;;
7334;SDS011;3708;42.632;23.378;2023-05-18T02:23:33;1.93;;;1.37;;
7334;SDS011;3708;42.632;23.378;2023-05-18T02:26:00;1.60;;;1.50;;
7334;SDS011;3708;42.632;23.378;2023-05-18T02:28:27;2.40;;;1.60;;
7334;SDS011;3708;42.632;23.378;2023-05-18T02:30:54;2.40;;;1.53;;
7334;SDS011;3708;42.632;23.378;2023-05-18T02:33:30;1.50;;;1.40;;
7334;SDS011;3708;42.632;23.378;2023-05-18T02:36:04;4.63;;;1.77;;
7334;SDS011;3708;42.632;23.378;2023-05-18T02:38:34;1.53;;;1.43;;
7334;SDS011;3708;42.632;23.378;2023-05-18T02:41:01;1.60;;;1.40;;
7334;SDS011;3708;42.632;23.378;2023-05-18T02:43:28;4.70;;;2.10;;
7334;SDS011;3708;42.632;23.378;2023-05-18T02:45:55;3.10;;;1.60;;
7334;SDS011;3708;42.632;23.378;2023-05-18T02:48:22;4.03;;;1.40;;
7334;SDS011;3708;42.632;23.378;2023-05-18T02:50:50;2.23;;;1.70;;
7334;SDS011;3708;42.632;23.378;2023-05-18T02:53:17;1.80;;;1.67;;
7334;SDS011;3708;42.632;23.378;2023-05-18T02:55:44;4.50;;;1.33;;
7334;SDS011;3708;42.632;23.378;2023-05-18T02:58:17;3.97;;;2.00;;
7334;SDS011;3708;42.632;23.378;2023-05-18T03:00:47;2.43;;;1.60;;
7334;SDS011;3708;42.632;23.378;2023-05-18T03:03:16;2.40;;;1.77;;
7334;SDS011;3708;42.632;23.378;2023-05-18T03:05:43;1.97;;;1.70;;
7334;SDS011;3708;42.632;23.378;2023-05-18T03:08:11;2.00;;;1.80;;
7334;SDS011;3708;42.632;23.378;2023-05-18T03:10:38;1.70;;;1.50;;
7334;SDS011;3708;42.632;23.378;2023-05-18T03:13:05;2.37;;;1.60;;
7334;SDS011;3708;42.632;23.378;2023-05-18T03:15:32;1.97;;;1.60;;
7334;SDS011;3708;42.632;23.378;2023-05-18T03:17:59;2.77;;;1.90;;
7334;SDS011;3708;42.632;23.378;2023-05-18T03:20:28;2.03;;;1.50;;
7334;SDS011;3708;42.632;23.378;2023-05-18T03:22:56;2.87;;;1.60;;
7334;SDS011;3708;42.632;23.378;2023-05-18T03:25:25;2.00;;;1.80;;
7334;SDS011;3708;42.632;23.378;2023-05-18T03:27:53;3.27;;;1.80;;
7334;SDS011;3708;42.632;23.378;2023-05-18T03:30:21;2.20;;;1.97;;
7334;SDS011;3708;42.632;23.378;2023-05-18T03:32:48;2.80;;;2.53;;
7334;SDS011;3708;42.632;23.378;2023-05-18T03:35:15;6.03;;;5.43;;
7334;SDS011;3708;42.632;23.378;2023-05-18T03:37:42;4.73;;;3.93;;
7334;SDS011;3708;42.632;23.378;2023-05-18T03:40:09;10.50;;;7.33;;
7334;SDS011;3708;42.632;23.378;2023-05-18T03:42:39;21.00;;;7.10;;
7334;SDS011;3708;42.632;23.378;2023-05-18T03:45:07;9.40;;;8.33;;
7334;SDS011;3708;42.632;23.378;2023-05-18T03:47:35;7.90;;;7.03;;
7334;SDS011;3708;42.632;23.378;2023-05-18T03:50:02;8.63;;;7.03;;
7334;SDS011;3708;42.632;23.378;2023-05-18T03:52:30;10.23;;;9.20;;
7334;SDS011;3708;42.632;23.378;2023-05-18T03:54:58;6.13;;;5.50;;
7334;SDS011;3708;42.632;23.378;2023-05-18T03:57:25;6.57;;;5.77;;
7334;SDS011;3708;42.632;23.378;2023-05-18T03:59:55;7.10;;;4.17;;
7334;SDS011;3708;42.632;23.378;2023-05-18T04:02:22;3.40;;;3.10;;
7334;SDS011;3708;42.632;23.378;2023-05-18T04:04:49;3.33;;;3.00;;
7334;SDS011;3708;42.632;23.378;2023-05-18T04:07:18;3.00;;;2.70;;
7334;SDS011;3708;42.632;23.378;2023-05-18T04:09:48;3.50;;;3.10;;
7334;SDS011;3708;42.632;23.378;2023-05-18T04:12:17;3.20;;;2.87;;
7334;SDS011;3708;42.632;23.378;2023-05-18T04:14:44;3.83;;;2.80;;
7334;SDS011;3708;42.632;23.378;2023-05-18T04:17:20;5.27;;;3.63;;
7334;SDS011;3708;42.632;23.378;2023-05-18T04:19:52;5.83;;;3.63;;
7334;SDS011;3708;42.632;23.378;2023-05-18T04:22:18;4.43;;;4.00;;
7334;SDS011;3708;42.632;23.378;2023-05-18T04:24:51;4.73;;;4.27;;
7334;SDS011;3708;42.632;23.378;2023-05-18T04:27:19;4.70;;;4.20;;
7334;SDS011;3708;42.632;23.378;2023-05-18T04:29:46;6.73;;;4.80;;
7334;SDS011;3708;42.632;23.378;2023-05-18T04:32:13;5.87;;;4.90;;
7334;SDS011;3708;42.632;23.378;2023-05-18T04:34:43;7.50;;;5.50;;
7334;SDS011;3708;42.632;23.378;2023-05-18T04:37:13;7.37;;;5.43;;
7334;SDS011;3708;42.632;23.378;2023-05-18T04:39:42;6.10;;;5.50;;
7334;SDS011;3708;42.632;23.378;2023-05-18T04:42:08;5.73;;;5.10;;
7334;SDS011;3708;42.632;23.378;2023-05-18T04:44:38;9.33;;;4.90;;
7334;SDS011;3708;42.632;23.378;2023-05-18T04:47:05;7.67;;;5.30;;
7334;SDS011;3708;42.632;23.378;2023-05-18T04:49:32;6.97;;;5.37;;
7334;SDS011;3708;42.632;23.378;2023-05-18T04:52:00;8.17;;;5.40;;
7334;SDS011;3708;42.632;23.378;2023-05-18T04:54:30;6.70;;;5.50;;
7334;SDS011;3708;42.632;23.378;2023-05-18T04:56:57;9.73;;;5.73;;
7334;SDS011;3708;42.632;23.378;2023-05-18T04:59:26;6.30;;;5.53;;
7334;SDS011;3708;42.632;23.378;2023-05-18T05:01:53;9.80;;;5.63;;
7334;SDS011;3708;42.632;23.378;2023-05-18T05:04:20;9.70;;;5.47;;
7334;SDS011;3708;42.632;23.378;2023-05-18T05:06:47;8.60;;;6.00;;
7334;SDS011;3708;42.632;23.378;2023-05-18T05:09:16;5.70;;;5.10;;
7334;SDS011;3708;42.632;23.378;2023-05-18T05:11:43;7.87;;;5.60;;
7334;SDS011;3708;42.632;23.378;2023-05-18T05:14:09;7.67;;;5.80;;
7334;SDS011;3708;42.632;23.378;2023-05-18T05:16:36;7.40;;;5.47;;
7334;SDS011;3708;42.632;23.378;2023-05-18T05:19:03;5.20;;;4.60;;
7334;SDS011;3708;42.632;23.378;2023-05-18T05:21:30;5.23;;;4.73;;
7334;SDS011;3708;42.632;23.378;2023-05-18T05:23:57;7.20;;;5.17;;
7334;SDS011;3708;42.632;23.378;2023-05-18T05:26:27;7.30;;;5.33;;
7334;SDS011;3708;42.632;23.378;2023-05-18T05:28:53;5.07;;;4.57;;
7334;SDS011;3708;42.632;23.378;2023-05-18T05:31:20;7.83;;;5.20;;
7334;SDS011;3708;42.632;23.378;2023-05-18T05:33:47;6.83;;;4.87;;
7334;SDS011;3708;42.632;23.378;2023-05-18T05:36:14;11.17;;;5.50;;
7334;SDS011;3708;42.632;23.378;2023-05-18T05:38:41;10.07;;;4.73;;
7334;SDS011;3708;42.632;23.378;2023-05-18T05:41:07;8.93;;;5.10;;
7334;SDS011;3708;42.632;23.378;2023-05-18T05:43:36;9.33;;;4.50;;
7334;SDS011;3708;42.632;23.378;2023-05-18T05:46:03;5.90;;;4.50;;
7334;SDS011;3708;42.632;23.378;2023-05-18T05:48:30;6.60;;;4.37;;
7334;SDS011;3708;42.632;23.378;2023-05-18T05:50:57;5.10;;;4.17;;
7334;SDS011;3708;42.632;23.378;2023-05-18T05:53:24;5.70;;;4.53;;
7334;SDS011;3708;42.632;23.378;2023-05-18T05:55:50;5.87;;;4.90;;
7334;SDS011;3708;42.632;23.378;2023-05-18T05:58:17;8.53;;;5.23;;
7334;SDS011;3708;42.632;23.378;2023-05-18T06:00:45;14.13;;;6.63;;
7334;SDS011;3708;42.632;23.378;2023-05-18T06:03:12;9.47;;;6.30;;
7334;SDS011;3708;42.632;23.378;2023-05-18T06:05:39;10.40;;;7.70;;
7334;SDS011;3708;42.632;23.378;2023-05-18T06:08:06;8.43;;;7.40;;
7334;SDS011;3708;42.632;23.378;2023-05-18T06:10:35;9.27;;;8.27;;
7334;SDS011;3708;42.632;23.378;2023-05-18T06:13:03;13.13;;;9.43;;
7334;SDS011;3708;42.632;23.378;2023-05-18T06:15:30;8.97;;;6.50;;
7334;SDS011;3708;42.632;23.378;2023-05-18T06:17:58;15.33;;;8.17;;
7334;SDS011;3708;42.632;23.378;2023-05-18T06:20:25;7.97;;;6.60;;
7334;SDS011;3708;42.632;23.378;2023-05-18T06:22:52;7.80;;;6.37;;
7334;SDS011;3708;42.632;23.378;2023-05-18T06:25:19;9.37;;;7.00;;
7334;SDS011;3708;42.632;23.378;2023-05-18T06:27:46;11.07;;;6.57;;
7334;SDS011;3708;42.632;23.378;2023-05-18T06:30:13;7.50;;;6.37;;
7334;SDS011;3708;42.632;23.378;2023-05-18T06:32:40;7.30;;;6.60;;
7334;SDS011;3708;42.632;23.378;2023-05-18T06:35:08;7.33;;;6.27;;
7334;SDS011;3708;42.632;23.378;2023-05-18T06:37:37;9.00;;;7.03;;
7334;SDS011;3708;42.632;23.378;2023-05-18T06:40:04;7.23;;;6.30;;
7334;SDS011;3708;42.632;23.378;2023-05-18T06:42:32;7.20;;;6.50;;
7334;SDS011;3708;42.632;23.378;2023-05-18T06:45:01;6.80;;;6.10;;
7334;SDS011;3708;42.632;23.378;2023-05-18T06:47:28;8.10;;;6.87;;
7334;SDS011;3708;42.632;23.378;2023-05-18T06:49:54;9.47;;;8.03;;
7334;SDS011;3708;42.632;23.378;2023-05-18T06:52:23;7.73;;;6.93;;
7334;SDS011;3708;42.632;23.378;2023-05-18T06:54:49;7.70;;;6.90;;
7334;SDS011;3708;42.632;23.378;2023-05-18T06:57:16;7.23;;;6.20;;
7334;SDS011;3708;42.632;23.378;2023-05-18T06:59:43;12.30;;;7.53;;
7334;SDS011;3708;42.632;23.378;2023-05-18T07:02:10;13.13;;;7.60;;
7334;SDS011;3708;42.632;23.378;2023-05-18T07:04:37;8.27;;;7.30;;
7334;SDS011;3708;42.632;23.378;2023-05-18T07:07:04;8.33;;;7.20;;
7334;SDS011;3708;42.632;23.378;2023-05-18T07:09:33;8.53;;;6.00;;
7334;SDS011;3708;42.632;23.378;2023-05-18T07:12:01;11.47;;;6.73;;
7334;SDS011;3708;42.632;23.378;2023-05-18T07:14:27;12.93;;;7.77;;
7334;SDS011;3708;42.632;23.378;2023-05-18T07:16:54;8.57;;;6.47;;
7334;SDS011;3708;42.632;23.378;2023-05-18T07:19:21;8.37;;;6.20;;
7334;SDS011;3708;42.632;23.378;2023-05-18T07:21:48;6.87;;;5.93;;
7334;SDS011;3708;42.632;23.378;2023-05-18T07:24:15;7.57;;;6.87;;
7334;SDS011;3708;42.632;23.378;2023-05-18T07:26:43;8.50;;;7.60;;
7334;SDS011;3708;42.632;23.378;2023-05-18T07:29:10;9.53;;;7.37;;
7334;SDS011;3708;42.632;23.378;2023-05-18T07:31:37;9.87;;;7.33;;
7334;SDS011;3708;42.632;23.378;2023-05-18T07:34:05;9.77;;;6.93;;
7334;SDS011;3708;42.632;23.378;2023-05-18T07:36:32;8.50;;;6.73;;
7334;SDS011;3708;42.632;23.378;2023-05-18T07:38:59;7.97;;;7.17;;
7334;SDS011;3708;42.632;23.378;2023-05-18T07:41:26;10.17;;;7.50;;
7334;SDS011;3708;42.632;23.378;2023-05-18T07:43:54;12.73;;;8.23;;
7334;SDS011;3708;42.632;23.378;2023-05-18T07:46:21;12.47;;;9.37;;
7334;SDS011;3708;42.632;23.378;2023-05-18T07:48:48;10.07;;;8.67;;
7334;SDS011;3708;42.632;23.378;2023-05-18T07:51:15;11.30;;;8.37;;
7334;SDS011;3708;42.632;23.378;2023-05-18T07:53:42;11.30;;;9.43;;
7334;SDS011;3708;42.632;23.378;2023-05-18T07:56:10;10.77;;;8.20;;
7334;SDS011;3708;42.632;23.378;2023-05-18T07:58:37;10.30;;;8.07;;
7334;SDS011;3708;42.632;23.378;2023-05-18T08:01:05;10.93;;;8.40;;
7334;SDS011;3708;42.632;23.378;2023-05-18T08:03:32;10.97;;;7.53;;
7334;SDS011;3708;42.632;23.378;2023-05-18T08:05:59;12.70;;;8.70;;
7334;SDS011;3708;42.632;23.378;2023-05-18T08:08:26;13.00;;;8.27;;
7334;SDS011;3708;42.632;23.378;2023-05-18T08:10:52;9.17;;;7.93;;
7334;SDS011;3708;42.632;23.378;2023-05-18T08:13:19;14.80;;;8.67;;
7334;SDS011;3708;42.632;23.378;2023-05-18T08:15:46;9.80;;;7.87;;
7334;SDS011;3708;42.632;23.378;2023-05-18T08:18:14;9.33;;;8.10;;
7334;SDS011;3708;42.632;23.378;2023-05-18T08:20:41;11.17;;;8.93;;
7334;SDS011;3708;42.632;23.378;2023-05-18T08:23:08;9.43;;;8.13;;
7334;SDS011;3708;42.632;23.378;2023-05-18T08:25:35;14.70;;;7.83;;
7334;SDS011;3708;42.632;23.378;2023-05-18T08:28:02;11.80;;;8.53;;
7334;SDS011;3708;42.632;23.378;2023-05-18T08:30:29;12.37;;;7.73;;
7334;SDS011;3708;42.632;23.378;2023-05-18T08:32:56;11.80;;;7.27;;
7334;SDS011;3708;42.632;23.378;2023-05-18T08:35:24;10.33;;;7.70;;
7334;SDS011;3708;42.632;23.378;2023-05-18T08:37:51;11.03;;;8.10;;
7334;SDS011;3708;42.632;23.378;2023-05-18T08:40:18;12.23;;;7.50;;
7334;SDS011;3708;42.632;23.378;2023-05-18T08:42:46;10.10;;;7.80;;
7334;SDS011;3708;42.632;23.378;2023-05-18T08:45:19;14.00;;;7.63;;
7334;SDS011;3708;42.632;23.378;2023-05-18T08:47:49;8.90;;;6.93;;
7334;SDS011;3708;42.632;23.378;2023-05-18T08:50:16;9.60;;;6.93;;
7334;SDS011;3708;42.632;23.378;2023-05-18T08:52:47;11.73;;;7.03;;
7334;SDS011;3708;42.632;23.378;2023-05-18T08:55:17;12.10;;;8.23;;
7334;SDS011;3708;42.632;23.378;2023-05-18T08:57:45;12.80;;;8.20;;
7334;SDS011;3708;42.632;23.378;2023-05-18T09:00:20;12.80;;;7.10;;
7334;SDS011;3708;42.632;23.378;2023-05-18T09:02:47;14.97;;;7.10;;
7334;SDS011;3708;42.632;23.378;2023-05-18T09:05:15;10.70;;;7.07;;
7334;SDS011;3708;42.632;23.378;2023-05-18T09:07:43;11.83;;;6.93;;
7334;SDS011;3708;42.632;23.378;2023-05-18T09:10:12;8.60;;;7.17;;
7334;SDS011;3708;42.632;23.378;2023-05-18T09:12:41;13.43;;;7.73;;
7334;SDS011;3708;42.632;23.378;2023-05-18T09:15:11;9.63;;;6.67;;
7334;SDS011;3708;42.632;23.378;2023-05-18T09:17:38;13.40;;;8.20;;
7334;SDS011;3708;42.632;23.378;2023-05-18T09:20:06;9.27;;;6.63;;
7334;SDS011;3708;42.632;23.378;2023-05-18T09:22:34;8.87;;;6.73;;
7334;SDS011;3708;42.632;23.378;2023-05-18T09:25:05;9.67;;;7.07;;
7334;SDS011;3708;42.632;23.378;2023-05-18T09:27:36;11.27;;;6.77;;
7334;SDS011;3708;42.632;23.378;2023-05-18T09:30:03;9.30;;;7.03;;
7334;SDS011;3708;42.632;23.378;2023-05-18T09:32:35;11.97;;;8.73;;
7334;SDS011;3708;42.632;23.378;2023-05-18T09:35:02;15.50;;;7.97;;
7334;SDS011;3708;42.632;23.378;2023-05-18T09:37:30;11.27;;;7.23;;
7334;SDS011;3708;42.632;23.378;2023-05-18T09:39:58;11.47;;;7.70;;
7334;SDS011;3708;42.632;23.378;2023-05-18T09:42:26;9.90;;;7.80;;
7334;SDS011;3708;42.632;23.378;2023-05-18T09:45:02;10.57;;;7.60;;
7334;SDS011;3708;42.632;23.378;2023-05-18T09:47:30;11.03;;;7.83;;
7334;SDS011;3708;42.632;23.378;2023-05-18T09:49:58;11.57;;;8.20;;
7334;SDS011;3708;42.632;23.378;2023-05-18T09:52:25;15.43;;;7.87;;
7334;SDS011;3708;42.632;23.378;2023-05-18T09:54:56;10.47;;;9.07;;
7334;SDS011;3708;42.632;23.378;2023-05-18T09:57:24;11.67;;;8.50;;
7334;SDS011;3708;42.632;23.378;2023-05-18T09:59:54;13.40;;;8.87;;
7334;SDS011;3708;42.632;23.378;2023-05-18T10:02:23;14.07;;;8.93;;
7334;SDS011;3708;42.632;23.378;2023-05-18T10:04:50;11.97;;;7.73;;
7334;SDS011;3708;42.632;23.378;2023-05-18T10:07:17;12.97;;;8.03;;
7334;SDS011;3708;42.632;23.378;2023-05-18T10:09:45;11.40;;;8.60;;
7334;SDS011;3708;42.632;23.378;2023-05-18T10:12:13;13.50;;;7.73;;
7334;SDS011;3708;42.632;23.378;2023-05-18T10:14:41;10.00;;;7.90;;
7334;SDS011;3708;42.632;23.378;2023-05-18T10:17:10;11.83;;;8.43;;
7334;SDS011;3708;42.632;23.378;2023-05-18T10:19:38;10.13;;;8.17;;
7334;SDS011;3708;42.632;23.378;2023-05-18T10:22:07;13.17;;;9.50;;
7334;SDS011;3708;42.632;23.378;2023-05-18T10:24:35;17.30;;;9.27;;
7334;SDS011;3708;42.632;23.378;2023-05-18T10:27:05;9.77;;;8.07;;
7334;SDS011;3708;42.632;23.378;2023-05-18T10:29:34;8.60;;;6.97;;
7334;SDS011;3708;42.632;23.378;2023-05-18T10:32:02;10.33;;;7.10;;
7334;SDS011;3708;42.632;23.378;2023-05-18T10:34:29;9.27;;;7.37;;
7334;SDS011;3708;42.632;23.378;2023-05-18T10:36:59;13.17;;;7.53;;
7334;SDS011;3708;42.632;23.378;2023-05-18T10:39:29;9.10;;;7.30;;
7334;SDS011;3708;42.632;23.378;2023-05-18T10:41:58;9.13;;;7.00;;
7334;SDS011;3708;42.632;23.378;2023-05-18T10:44:27;10.23;;;6.67;;
7334;SDS011;3708;42.632;23.378;2023-05-18T10:46:54;9.33;;;6.43;;
7334;SDS011;3708;42.632;23.378;2023-05-18T10:49:21;9.27;;;6.43;;
7334;SDS011;3708;42.632;23.378;2023-05-18T10:51:51;8.30;;;6.70;;
7334;SDS011;3708;42.632;23.378;2023-05-18T10:54:21;9.87;;;7.13;;
7334;SDS011;3708;42.632;23.378;2023-05-18T10:56:49;9.97;;;6.93;;
7334;SDS011;3708;42.632;23.378;2023-05-18T10:59:18;16.93;;;8.33;;
7334;SDS011;3708;42.632;23.378;2023-05-18T11:01:47;12.47;;;7.57;;
7334;SDS011;3708;42.632;23.378;2023-05-18T11:04:20;8.23;;;7.40;;
7334;SDS011;3708;42.632;23.378;2023-05-18T11:06:52;11.80;;;8.70;;
7334;SDS011;3708;42.632;23.378;2023-05-18T11:09:23;11.13;;;7.43;;
7334;SDS011;3708;42.632;23.378;2023-05-18T11:11:51;11.47;;;7.00;;
7334;SDS011;3708;42.632;23.378;2023-05-18T11:14:26;8.23;;;6.77;;
7334;SDS011;3708;42.632;23.378;2023-05-18T11:17:02;8.97;;;4.90;;
7334;SDS011;3708;42.632;23.378;2023-05-18T11:19:53;5.23;;;4.43;;
7334;SDS011;3708;42.632;23.378;2023-05-18T11:25:44;7.57;;;4.67;;
7334;SDS011;3708;42.632;23.378;2023-05-18T11:28:13;5.27;;;4.23;;
7334;SDS011;3708;42.632;23.378;2023-05-18T11:30:45;6.43;;;4.93;;
7334;SDS011;3708;42.632;23.378;2023-05-18T11:33:14;10.87;;;5.10;;
7334;SDS011;3708;42.632;23.378;2023-05-18T11:36:02;10.37;;;6.57;;
7334;SDS011;3708;42.632;23.378;2023-05-18T11:38:45;7.23;;;4.37;;
7334;SDS011;3708;42.632;23.378;2023-05-18T11:41:33;6.13;;;4.00;;
7334;SDS011;3708;42.632;23.378;2023-05-18T11:44:04;6.30;;;4.40;;
7334;SDS011;3708;42.632;23.378;2023-05-18T11:46:41;4.93;;;4.03;;
7334;SDS011;3708;42.632;23.378;2023-05-18T11:49:18;4.23;;;3.50;;
7334;SDS011;3708;42.632;23.378;2023-05-18T11:51:53;9.30;;;4.00;;
7334;SDS011;3708;42.632;23.378;2023-05-18T11:54:22;8.37;;;3.70;;
7334;SDS011;3708;42.632;23.378;2023-05-18T11:56:52;6.13;;;3.20;;
7334;SDS011;3708;42.632;23.378;2023-05-18T11:59:29;5.70;;;3.40;;
7334;SDS011;3708;42.632;23.378;2023-05-18T12:01:57;3.27;;;2.93;;
7334;SDS011;3708;42.632;23.378;2023-05-18T12:04:25;3.27;;;2.70;;
7334;SDS011;3708;42.632;23.378;2023-05-18T12:06:53;5.23;;;2.93;;
7334;SDS011;3708;42.632;23.378;2023-05-18T12:09:21;2.73;;;2.43;;
7334;SDS011;3708;42.632;23.378;2023-05-18T12:11:48;3.10;;;2.73;;
7334;SDS011;3708;42.632;23.378;2023-05-18T12:14:18;2.93;;;2.60;;
7334;SDS011;3708;42.632;23.378;2023-05-18T12:16:47;3.07;;;2.70;;
7334;SDS011;3708;42.632;23.378;2023-05-18T12:19:14;6.07;;;2.63;;
7334;SDS011;3708;42.632;23.378;2023-05-18T12:21:42;5.13;;;2.80;;
7334;SDS011;3708;42.632;23.378;2023-05-18T12:24:09;3.70;;;2.73;;
7334;SDS011;3708;42.632;23.378;2023-05-18T12:26:35;4.33;;;3.80;;
7334;SDS011;3708;42.632;23.378;2023-05-18T12:29:05;5.60;;;3.87;;
7334;SDS011;3708;42.632;23.378;2023-05-18T12:31:33;8.57;;;3.50;;
7334;SDS011;3708;42.632;23.378;2023-05-18T12:34:01;7.60;;;3.60;;
7334;SDS011;3708;42.632;23.378;2023-05-18T12:36:28;4.53;;;3.63;;
7334;SDS011;3708;42.632;23.378;2023-05-18T12:38:55;6.97;;;4.07;;
7334;SDS011;3708;42.632;23.378;2023-05-18T12:41:22;6.00;;;4.60;;
7334;SDS011;3708;42.632;23.378;2023-05-18T12:43:50;5.60;;;3.37;;
7334;SDS011;3708;42.632;23.378;2023-05-18T12:46:19;4.93;;;3.20;;
7334;SDS011;3708;42.632;23.378;2023-05-18T12:48:54;4.43;;;3.30;;
7334;SDS011;3708;42.632;23.378;2023-05-18T12:51:22;5.80;;;3.23;;
7334;SDS011;3708;42.632;23.378;2023-05-18T12:53:49;4.20;;;3.80;;
7334;SDS011;3708;42.632;23.378;2023-05-18T12:56:15;4.70;;;3.80;;
7334;SDS011;3708;42.632;23.378;2023-05-18T12:58:53;5.80;;;4.57;;
7334;SDS011;3708;42.632;23.378;2023-05-18T13:01:21;6.03;;;3.97;;
7334;SDS011;3708;42.632;23.378;2023-05-18T13:03:54;5.47;;;3.47;;
7334;SDS011;3708;42.632;23.378;2023-05-18T13:06:22;4.43;;;3.43;;
7334;SDS011;3708;42.632;23.378;2023-05-18T13:08:52;7.17;;;4.30;;
7334;SDS011;3708;42.632;23.378;2023-05-18T13:11:22;8.43;;;4.10;;
7334;SDS011;3708;42.632;23.378;2023-05-18T13:13:57;6.00;;;3.90;;
7334;SDS011;3708;42.632;23.378;2023-05-18T13:16:28;4.33;;;3.93;;
7334;SDS011;3708;42.632;23.378;2023-05-18T13:18:58;6.40;;;4.60;;
7334;SDS011;3708;42.632;23.378;2023-05-18T13:21:26;7.77;;;4.70;;
7334;SDS011;3708;42.632;23.378;2023-05-18T13:23:54;5.37;;;4.57;;
7334;SDS011;3708;42.632;23.378;2023-05-18T13:26:22;8.87;;;4.80;;
7334;SDS011;3708;42.632;23.378;2023-05-18T13:28:59;6.00;;;4.63;;
7334;SDS011;3708;42.632;23.378;2023-05-18T13:31:26;6.57;;;5.37;;
7334;SDS011;3708;42.632;23.378;2023-05-18T13:33:54;6.87;;;4.80;;
7334;SDS011;3708;42.632;23.378;2023-05-18T13:36:22;5.33;;;4.60;;
7334;SDS011;3708;42.632;23.378;2023-05-18T13:38:50;6.57;;;4.97;;
7334;SDS011;3708;42.632;23.378;2023-05-18T13:41:18;7.53;;;6.03;;
7334;SDS011;3708;42.632;23.378;2023-05-18T13:43:45;9.23;;;5.23;;
7334;SDS011;3708;42.632;23.378;2023-05-18T13:46:12;7.77;;;4.90;;
7334;SDS011;3708;42.632;23.378;2023-05-18T13:48:39;5.70;;;4.50;;
7334;SDS011;3708;42.632;23.378;2023-05-18T13:51:06;5.37;;;4.53;;
7334;SDS011;3708;42.632;23.378;2023-05-18T13:53:34;6.37;;;5.20;;
7334;SDS011;3708;42.632;23.378;2023-05-18T13:56:01;6.73;;;4.00;;
7334;SDS011;3708;42.632;23.378;2023-05-18T13:58:28;16.07;;;10.43;;
7334;SDS011;3708;42.632;23.378;2023-05-18T14:00:58;5.80;;;4.37;;
7334;SDS011;3708;42.632;23.378;2023-05-18T14:03:28;4.47;;;4.07;;
7334;SDS011;3708;42.632;23.378;2023-05-18T14:05:57;5.17;;;3.83;;
7334;SDS011;3708;42.632;23.378;2023-05-18T14:08:50;4.87;;;3.90;;
7334;SDS011;3708;42.632;23.378;2023-05-18T14:11:17;4.23;;;3.60;;
7334;SDS011;3708;42.632;23.378;2023-05-18T14:13:44;4.23;;;3.83;;
7334;SDS011;3708;42.632;23.378;2023-05-18T14:16:11;4.97;;;4.10;;
7334;SDS011;3708;42.632;23.378;2023-05-18T14:18:37;8.90;;;4.80;;
7334;SDS011;3708;42.632;23.378;2023-05-18T14:21:04;6.00;;;4.67;;
7334;SDS011;3708;42.632;23.378;2023-05-18T14:23:31;6.43;;;5.73;;
7334;SDS011;3708;42.632;23.378;2023-05-18T14:26:00;7.27;;;4.80;;
7334;SDS011;3708;42.632;23.378;2023-05-18T14:28:30;6.53;;;4.93;;
7334;SDS011;3708;42.632;23.378;2023-05-18T14:30:57;6.20;;;4.10;;
7334;SDS011;3708;42.632;23.378;2023-05-18T14:33:24;5.43;;;4.30;;
7334;SDS011;3708;42.632;23.378;2023-05-18T14:35:51;8.97;;;4.90;;
7334;SDS011;3708;42.632;23.378;2023-05-18T14:38:21;8.20;;;4.93;;
7334;SDS011;3708;42.632;23.378;2023-05-18T14:40:51;6.73;;;4.77;;
7334;SDS011;3708;42.632;23.378;2023-05-18T14:43:21;6.60;;;5.00;;
7334;SDS011;3708;42.632;23.378;2023-05-18T14:45:51;7.17;;;4.50;;
7334;SDS011;3708;42.632;23.378;2023-05-18T14:48:18;8.13;;;4.67;;
7334;SDS011;3708;42.632;23.378;2023-05-18T14:50:45;5.17;;;3.90;;
7334;SDS011;3708;42.632;23.378;2023-05-18T14:53:15;4.17;;;3.73;;
7334;SDS011;3708;42.632;23.378;2023-05-18T14:56:06;6.37;;;4.20;;
7334;SDS011;3708;42.632;23.378;2023-05-18T14:58:36;9.57;;;5.30;;
7334;SDS011;3708;42.632;23.378;2023-05-18T15:01:03;7.83;;;4.73;;
7334;SDS011;3708;42.632;23.378;2023-05-18T15:03:31;4.80;;;3.50;;
7334;SDS011;3708;42.632;23.378;2023-05-18T15:05:58;4.07;;;3.67;;
7334;SDS011;3708;42.632;23.378;2023-05-18T15:08:25;5.33;;;3.87;;
7334;SDS011;3708;42.632;23.378;2023-05-18T15:10:51;3.67;;;3.30;;